Kedves Pilóták, Oktatók, Növendékek!

Az alábbi menüpontban szeretnénk összefoglalni néhány fontos és hasznos információt, linket, amely segíthet a repülések megtervezésében.

Ha bármilyen javaslatod van a tartalommal kapcsolatban, kérlek Ez az e-mail-cím a szpemrobotok elleni védelem alatt áll. Megtekintéséhez engedélyeznie kell a JavaScript használatát.meg nekünk.

 

Jó leszállást!

Repüléssel kapcsolatos hírek

2020. november 29.

Felhőkép 

Felhőkép

Széltérkép

Széltérkép

Győr-Pér Repülőtér

Élő webkamera kép

 Nagyobb kép

Győr-Pér Repülőtér

[Source: ADDS]
METAR
LHPR 291345Z AUTO 32007KT 9999 BKN028 BKN103 05/01 Q1021 NOSIG =
LHPR 291115Z 2912/2921 30011KT 9999 SCT030 BECMG 2912/2915 SCT015 BKN030 BECMG 2915/2918 30006KT
TAF
LHPR 291115Z 2912/2921 30011KT 9999 SCT030 BECMG 2912/2915 SCT015 BKN030 BECMG 2915/2918 30006KT =
SR / SS: 06:14 / 15:00 UTC (Napkelte / Napnyugta 2020-11-29)

Kapcsolat

Telephely:     9099 Pér, Repülõtér

Klubhelyiség: 9021 Gyõr, Városház tér 3.

E-mail: info@aeroclub-gyor.hu

Telefon: 06-20-777-9106

Adószám: 19113832-2-08

JSN Metro template designed by JoomlaShine.com